Time;durP1;ratioP1;P1;durP2;ratioP2;P2;SDS_P1;SDS_P2;PMS_P1;PMS_P2;Temp;Humidity;BMP_temperature;BMP_pressure;BME280_temperature;BME280_humidity;BME280_pressure;Samples;Min_cycle;Max_cycle;Signal;HPM_P1;HPM_P2
2023/10/30 00:00:34;;;;;;;;;;;;;;;5.66;100.00;98388.44;4936612;29;19977;-87
2023/10/30 00:02:59;;;;;;;;;;;;;;;5.72;100.00;98393.44;4949263;29;19918;-86
2023/10/30 00:05:25;;;;;;;;;;;;;;;5.58;100.00;98408.03;4935879;29;19919;-83
2023/10/30 00:07:53;;;;;;;;;;;;;;;5.59;100.00;98398.38;4936621;29;19926;-89
2023/10/30 00:10:18;;;;;;;;;;;;;;;5.60;100.00;98395.69;4937159;29;19918;-87
2023/10/30 00:12:44;;;;;;;;;;;;;;;5.64;100.00;98402.50;4954500;29;19929;-83
2023/10/30 00:15:09;;;;;;;;;;;;;;;5.57;100.00;98416.00;4937156;29;19918;-84
2023/10/30 00:17:34;;;;;;;;;;;;;;;5.52;100.00;98431.97;4953155;29;20005;-84
2023/10/30 00:20:00;;;;;;;;;;;;;;;5.52;100.00;98429.34;4954247;28;20330;-85
2023/10/30 00:22:25;;;;;;;;;;;;;;;5.43;100.00;98420.06;4954201;28;19922;-83
2023/10/30 00:24:50;;;;;;;;;;;;;;;5.57;100.00;98419.47;4937164;29;19969;-83
2023/10/30 08:58:09;;;;;;;;;;;;;;;7.95;100.00;98321.72;5013572;28;19929;-84
2023/10/30 09:00:36;;;;;;;;;;;;;;;8.01;100.00;98331.09;5012950;28;19925;-86
2023/10/30 09:03:01;;;;;;;;;;;;;;;8.05;100.00;98327.34;4994415;28;19918;-87
2023/10/30 09:05:26;;;;;;;;;;;;;;;8.13;100.00;98327.75;5012700;28;19971;-87
2023/10/30 09:07:52;;;;;;;;;;;;;;;8.13;100.00;98333.03;5012789;28;19917;-87
2023/10/30 09:10:17;;;;;;;;;;;;;;;8.19;100.00;98330.03;5011232;28;19925;-86
2023/10/30 09:12:43;;;;;;;;;;;;;;;8.21;100.00;98331.75;5012729;28;19921;-86
2023/10/30 09:15:08;;;;;;;;;;;;;;;8.25;100.00;98328.00;5012572;28;19928;-84
2023/10/30 09:17:33;;;;;;;;;;;;;;;8.29;100.00;98308.41;5012754;28;20036;-87
2023/10/30 09:19:59;;;;;;;;;;;;;;;8.33;100.00;98309.97;4994850;28;19924;-85
2023/10/30 09:22:27;;;;;;;;;;;;;;;8.35;100.00;98301.00;5012530;28;19975;-86
2023/10/30 09:24:54;;;;;;;;;;;;;;;8.38;100.00;98292.06;5010577;28;19917;-83
2023/10/30 09:27:19;;;;;;;;;;;;;;;8.42;100.00;98290.09;5012169;28;19918;-87
2023/10/30 09:29:44;;;;;;;;;;;;;;;8.41;100.00;98288.38;5011291;28;20398;-85
2023/10/30 09:32:09;;;;;;;;;;;;;;;8.44;100.00;98297.03;5012326;28;19972;-87
2023/10/30 09:34:35;;;;;;;;;;;;;;;8.44;100.00;98297.03;5012372;28;20331;-87
2023/10/30 09:37:00;;;;;;;;;;;;;;;8.48;100.00;98292.41;5012309;28;19917;-84
2023/10/30 09:39:25;;;;;;;;;;;;;;;8.50;100.00;98283.47;5011091;28;19965;-85
2023/10/30 09:41:52;;;;;;;;;;;;;;;8.53;100.00;98283.28;5012359;28;19924;-86
2023/10/30 09:44:17;;;;;;;;;;;;;;;8.58;100.00;98287.44;5012259;28;19921;-87
2023/10/30 09:46:43;;;;;;;;;;;;;;;8.59;100.00;98294.44;5012231;28;19941;-86
2023/10/30 09:49:13;;;;;;;;;;;;;;;8.60;100.00;98291.72;5012393;28;20475;-84
2023/10/30 09:51:46;;;;;;;;;;;;;;;8.67;100.00;98286.91;5012136;28;19967;-84
2023/10/30 09:54:12;;;;;;;;;;;;;;;8.70;100.00;98281.44;4977739;28;19968;-85
2023/10/30 09:56:38;;;;;;;;;;;;;;;8.68;100.00;98278.91;5019761;28;19968;-85
2023/10/30 09:59:04;;;;;;;;;;;;;;;8.70;100.00;98276.16;5031833;28;19917;-86
2023/10/30 10:01:29;;;;;;;;;;;;;;;8.72;100.00;98271.63;5031803;28;19913;-86
2023/10/30 10:03:55;;;;;;;;;;;;;;;8.70;100.00;98271.72;5031835;28;19928;-86
2023/10/30 10:06:21;;;;;;;;;;;;;;;8.74;100.00;98277.66;5032333;28;19943;-85
2023/10/30 10:08:46;;;;;;;;;;;;;;;8.76;100.00;98270.53;5034912;28;19918;-84
2023/10/30 10:11:11;;;;;;;;;;;;;;;8.77;100.00;98274.84;5016537;28;19924;-84
2023/10/30 10:13:43;;;;;;;;;;;;;;;8.77;100.00;98259.00;5035763;28;20019;-84
2023/10/30 10:16:10;;;;;;;;;;;;;;;8.82;100.00;98250.81;5035347;28;19924;-84
2023/10/30 10:18:35;;;;;;;;;;;;;;;8.82;100.00;98233.19;5035483;28;19917;-84
2023/10/30 10:21:04;;;;;;;;;;;;;;;8.83;100.00;98241.94;5035542;28;20457;-87
2023/10/30 10:23:33;;;;;;;;;;;;;;;8.84;100.00;98247.16;5035081;28;19928;-84
2023/10/30 10:26:13;;;;;;;;;;;;;;;8.85;100.00;98237.41;5033695;28;19921;-84
2023/10/30 10:28:38;;;;;;;;;;;;;;;8.69;100.00;98235.69;5018704;28;19928;-84
2023/10/30 10:31:04;;;;;;;;;;;;;;;8.07;100.00;98232.28;5035222;28;19916;-84
2023/10/30 10:33:32;;;;;;;;;;;;;;;7.77;100.00;98239.22;5035363;28;19996;-84
2023/10/30 10:36:00;;;;;;;;;;;;;;;7.66;100.00;98228.41;5035377;28;19917;-83
2023/10/30 10:38:26;;;;;;;;;;;;;;;7.50;100.00;98215.25;5035213;28;19940;-84
2023/10/30 10:40:51;;;;;;;;;;;;;;;7.41;100.00;98206.03;5034104;28;19913;-83
2023/10/30 10:43:20;;;;;;;;;;;;;;;7.29;100.00;98198.81;5017472;28;20307;-86
2023/10/30 10:45:46;;;;;;;;;;;;;;;7.36;100.00;98194.06;5035147;28;19921;-84
2023/10/30 10:48:12;;;;;;;;;;;;;;;7.22;100.00;98195.66;5035083;28;19921;-84
2023/10/30 10:50:37;;;;;;;;;;;;;;;7.14;100.00;98191.75;5035185;28;19925;-84
2023/10/30 10:53:04;;;;;;;;;;;;;;;7.11;100.00;98187.50;5017309;28;19971;-85
2023/10/30 10:55:31;;;;;;;;;;;;;;;7.05;100.00;98188.69;5015178;28;19921;-85
2023/10/30 10:57:57;;;;;;;;;;;;;;;7.01;100.00;98176.59;5035027;28;20314;-86
2023/10/30 11:00:24;;;;;;;;;;;;;;;7.13;100.00;98177.72;5034703;28;20068;-85
2023/10/30 11:02:51;;;;;;;;;;;;;;;7.04;100.00;98163.28;5033995;28;20391;-85
2023/10/30 11:05:16;;;;;;;;;;;;;;;6.93;100.00;98159.53;5034549;28;19917;-85
2023/10/30 11:07:46;;;;;;;;;;;;;;;6.91;100.00;98157.81;5034693;28;20364;-85
2023/10/30 11:10:17;;;;;;;;;;;;;;;6.88;100.00;98152.72;5033397;28;19928;-85
2023/10/30 11:12:45;;;;;;;;;;;;;;;6.87;100.00;98152.78;5034443;28;19917;-85
2023/10/30 11:15:14;;;;;;;;;;;;;;;6.88;100.00;98149.25;5034868;28;19964;-86
2023/10/30 11:17:40;;;;;;;;;;;;;;;6.90;100.00;98136.84;5033755;28;19967;-87
2023/10/30 11:20:08;;;;;;;;;;;;;;;6.81;100.00;98132.94;5033849;28;19921;-85
2023/10/30 11:22:43;;;;;;;;;;;;;;;6.75;100.00;98121.84;5033748;28;19921;-85
2023/10/30 11:25:43;;;;;;;;;;;;;;;6.66;100.00;98113.53;5015055;28;19945;-86
2023/10/30 11:28:08;;;;;;;;;;;;;;;6.68;100.00;98103.75;5034288;28;19918;-85
2023/10/30 11:30:43;;;;;;;;;;;;;;;6.59;100.00;98096.38;5034231;28;19925;-85
2023/10/30 11:33:19;;;;;;;;;;;;;;;6.57;100.00;98087.69;5034139;28;20380;-84
2023/10/30 11:35:45;;;;;;;;;;;;;;;6.51;100.00;98072.22;5033559;28;19929;-87
2023/10/30 11:38:11;;;;;;;;;;;;;;;6.45;100.00;98070.78;5034021;28;19964;-87
2023/10/30 11:40:36;;;;;;;;;;;;;;;6.46;100.00;98069.00;5032954;28;19960;-85
2023/10/30 11:43:06;;;;;;;;;;;;;;;6.47;100.00;98070.72;5034083;28;20375;-86
2023/10/30 11:45:32;;;;;;;;;;;;;;;6.39;100.00;98065.84;5033883;28;19925;-85
2023/10/30 11:48:05;;;;;;;;;;;;;;;6.49;100.00;98053.91;5032362;28;19975;-86
2023/10/30 11:50:34;;;;;;;;;;;;;;;6.54;100.00;98049.25;5033548;28;19918;-85
2023/10/30 11:53:00;;;;;;;;;;;;;;;6.31;100.00;98039.09;5030613;28;19959;-87
2023/10/30 11:55:27;;;;;;;;;;;;;;;6.28;100.00;98040.09;5030460;28;19921;-85
2023/10/30 11:57:53;;;;;;;;;;;;;;;6.31;100.00;98041.75;5033710;28;19925;-86
2023/10/30 12:00:18;;;;;;;;;;;;;;;6.26;100.00;98030.63;5033660;28;20360;-90
2023/10/30 12:02:44;;;;;;;;;;;;;;;6.22;100.00;98029.91;5030662;28;19943;-87
2023/10/30 12:05:10;;;;;;;;;;;;;;;6.32;100.00;98020.63;5033578;28;19921;-84
2023/10/30 12:07:36;;;;;;;;;;;;;;;6.36;100.00;98023.91;5013760;28;19925;-85
2023/10/30 12:10:03;;;;;;;;;;;;;;;6.19;100.00;98024.84;5031311;28;20422;-87
2023/10/30 12:12:29;;;;;;;;;;;;;;;6.25;100.00;98013.97;5033653;28;19992;-86
2023/10/30 12:14:59;;;;;;;;;;;;;;;6.28;100.00;98016.44;5031645;28;20016;-85
2023/10/30 12:17:24;;;;;;;;;;;;;;;6.27;100.00;98009.50;5032151;28;20292;-85
2023/10/30 12:19:49;;;;;;;;;;;;;;;6.27;100.00;98014.75;5032404;28;19925;-85
2023/10/30 12:22:14;;;;;;;;;;;;;;;6.21;100.00;98009.81;5014358;28;19928;-87
2023/10/30 12:24:40;;;;;;;;;;;;;;;6.18;100.00;97991.56;5029374;28;19932;-85
2023/10/30 12:27:05;;;;;;;;;;;;;;;6.18;100.00;97986.31;5014617;28;20327;-88
2023/10/30 12:29:30;;;;;;;;;;;;;;;6.19;100.00;97982.75;5032677;28;19921;-87
2023/10/30 12:32:03;;;;;;;;;;;;;;;6.12;100.00;97986.63;5033525;28;20000;-85
2023/10/30 12:34:28;;;;;;;;;;;;;;;6.16;100.00;97973.25;5032321;28;19921;-85
2023/10/30 12:36:53;;;;;;;;;;;;;;;6.03;100.00;97974.84;5015199;28;19924;-86
2023/10/30 12:39:22;;;;;;;;;;;;;;;6.15;100.00;97968.91;5013984;28;19921;-84
2023/10/30 12:41:51;;;;;;;;;;;;;;;6.09;100.00;97960.50;5033032;28;20364;-85
2023/10/30 12:44:17;;;;;;;;;;;;;;;6.14;100.00;97953.22;5032091;28;20427;-84
2023/10/30 12:46:45;;;;;;;;;;;;;;;6.05;100.00;97946.69;5014815;28;20016;-87
2023/10/30 12:49:10;;;;;;;;;;;;;;;6.09;100.00;97924.53;5014268;28;19953;-87
2023/10/30 12:51:36;;;;;;;;;;;;;;;6.07;100.00;97933.44;5015020;28;20367;-85
2023/10/30 12:54:01;;;;;;;;;;;;;;;5.98;100.00;97927.75;5015314;28;19917;-87
2023/10/30 12:56:27;;;;;;;;;;;;;;;6.04;100.00;97921.31;5031210;28;19972;-85
2023/10/30 12:58:52;;;;;;;;;;;;;;;6.05;100.00;97920.38;5032577;28;20371;-86
2023/10/30 13:01:18;;;;;;;;;;;;;;;6.07;100.00;97915.03;5031481;28;20003;-84
2023/10/30 13:03:43;;;;;;;;;;;;;;;6.03;100.00;97909.09;5032638;28;20015;-86
2023/10/30 13:06:08;;;;;;;;;;;;;;;6.03;100.00;97897.72;5031639;28;19964;-85
2023/10/30 13:08:33;;;;;;;;;;;;;;;6.06;100.00;97889.66;5032245;28;19917;-86
2023/10/30 13:11:01;;;;;;;;;;;;;;;6.10;100.00;97876.28;5029696;28;20214;-84
2023/10/30 13:13:26;;;;;;;;;;;;;;;6.04;100.00;97867.88;5014576;28;19925;-89
2023/10/30 13:15:51;;;;;;;;;;;;;;;6.10;100.00;97862.28;5032365;28;20257;-87
2023/10/30 13:18:17;;;;;;;;;;;;;;;6.10;100.00;97868.38;5032292;28;20331;-83
2023/10/30 13:20:42;;;;;;;;;;;;;;;6.06;100.00;97866.84;5032212;28;19927;-83
2023/10/30 13:23:07;;;;;;;;;;;;;;;6.02;100.00;97856.59;5031889;28;20374;-87
2023/10/30 13:25:32;;;;;;;;;;;;;;;6.05;100.00;97848.53;5030898;28;19968;-87
2023/10/30 13:27:58;;;;;;;;;;;;;;;5.93;100.00;97847.41;5032166;28;20292;-86
2023/10/30 13:30:23;;;;;;;;;;;;;;;5.88;100.00;97842.38;5032246;28;19921;-86
2023/10/30 13:32:49;;;;;;;;;;;;;;;6.06;100.00;97835.28;5014375;28;20427;-84
2023/10/30 13:35:14;;;;;;;;;;;;;;;5.94;100.00;97838.59;5014386;28;19927;-82
2023/10/30 13:37:39;;;;;;;;;;;;;;;5.89;100.00;97838.84;5032072;28;20365;-85
2023/10/30 13:40:06;;;;;;;;;;;;;;;5.95;100.00;97825.34;5030795;28;19944;-84
2023/10/30 13:42:31;;;;;;;;;;;;;;;5.92;100.00;97833.41;5030463;28;20431;-84
2023/10/30 13:44:56;;;;;;;;;;;;;;;5.91;100.00;97826.44;5032001;28;19917;-87
2023/10/30 13:47:22;;;;;;;;;;;;;;;5.83;100.00;97826.03;5031868;28;20403;-86
2023/10/30 13:49:47;;;;;;;;;;;;;;;5.97;100.00;97826.16;5032156;28;20277;-84
2023/10/30 13:52:13;;;;;;;;;;;;;;;5.96;100.00;97829.69;5032057;28;20004;-85
2023/10/30 13:54:38;;;;;;;;;;;;;;;5.89;100.00;97827.44;5012945;28;19917;-84
2023/10/30 13:57:04;;;;;;;;;;;;;;;5.97;100.00;97815.63;5031827;28;19925;-86
2023/10/30 13:59:29;;;;;;;;;;;;;;;6.00;100.00;97818.09;5031829;28;19948;-87
2023/10/30 14:01:54;;;;;;;;;;;;;;;5.93;100.00;97813.22;5031834;28;19964;-87
2023/10/30 14:04:20;;;;;;;;;;;;;;;5.95;100.00;97806.97;5032518;28;19917;-86
2023/10/30 14:06:45;;;;;;;;;;;;;;;5.90;100.00;97802.88;5032621;28;19921;-89
2023/10/30 14:09:12;;;;;;;;;;;;;;;5.95;100.00;97806.09;5031296;28;19923;-83
2023/10/30 14:11:37;;;;;;;;;;;;;;;5.94;100.00;97804.41;5031728;28;20189;-86
2023/10/30 14:14:03;;;;;;;;;;;;;;;5.96;100.00;97810.44;5031773;28;20354;-86
2023/10/30 14:16:28;;;;;;;;;;;;;;;5.97;100.00;97793.75;5031583;28;19921;-88
2023/10/30 14:18:53;;;;;;;;;;;;;;;5.91;100.00;97794.91;5014123;28;19921;-85
2023/10/30 14:21:22;;;;;;;;;;;;;;;5.94;100.00;97801.78;5031695;28;19932;-86
2023/10/30 14:23:47;;;;;;;;;;;;;;;5.82;100.00;97790.16;5031060;28;19921;-86
2023/10/30 14:26:12;;;;;;;;;;;;;;;5.86;100.00;97789.06;5030294;28;19917;-86
2023/10/30 14:28:37;;;;;;;;;;;;;;;5.80;100.00;97794.66;5031561;28;19917;-86
2023/10/30 14:31:03;;;;;;;;;;;;;;;5.80;100.00;97792.03;5031556;28;19990;-85
2023/10/30 14:33:28;;;;;;;;;;;;;;;5.81;100.00;97799.00;5031572;28;19917;-86
2023/10/30 14:35:54;;;;;;;;;;;;;;;5.75;100.00;97802.78;5031545;28;20326;-86
2023/10/30 14:38:19;;;;;;;;;;;;;;;5.94;100.00;97809.69;5031551;28;19913;-85
2023/10/30 14:40:44;;;;;;;;;;;;;;;5.84;100.00;97809.34;5030433;28;19921;-87
2023/10/30 14:43:10;;;;;;;;;;;;;;;5.75;100.00;97815.09;5031501;28;19909;-85
2023/10/30 14:45:35;;;;;;;;;;;;;;;5.85;100.00;97811.00;5031389;28;19917;-86
2023/10/30 14:48:00;;;;;;;;;;;;;;;5.87;100.00;97813.56;5031321;28;19928;-85
2023/10/30 14:50:26;;;;;;;;;;;;;;;5.75;100.00;97817.72;5031451;28;19917;-86
2023/10/30 14:52:51;;;;;;;;;;;;;;;5.86;100.00;97812.72;4998542;28;20005;-92
2023/10/30 14:55:16;;;;;;;;;;;;;;;5.92;100.00;97812.38;5033158;28;20284;-86
2023/10/30 14:57:42;;;;;;;;;;;;;;;5.89;100.00;97827.44;5034728;28;19956;-86
2023/10/30 15:00:08;;;;;;;;;;;;;;;5.91;100.00;97821.19;5017017;28;19921;-86
2023/10/30 15:02:34;;;;;;;;;;;;;;;5.94;100.00;97815.78;5034765;28;19917;-85
2023/10/30 15:05:00;;;;;;;;;;;;;;;5.88;100.00;97817.91;5034828;28;19928;-90
2023/10/30 15:07:25;;;;;;;;;;;;;;;5.88;100.00;97824.00;5016673;28;20011;-85
2023/10/30 15:09:51;;;;;;;;;;;;;;;5.97;100.00;97823.53;5033441;28;19959;-86
2023/10/30 15:12:16;;;;;;;;;;;;;;;5.98;100.00;97819.97;5034722;28;20364;-86
2023/10/30 15:14:41;;;;;;;;;;;;;;;5.86;100.00;97790.84;5034819;28;19917;-91
2023/10/30 15:17:06;;;;;;;;;;;;;;;5.84;100.00;97811.97;5016812;28;19952;-87
2023/10/30 15:19:32;;;;;;;;;;;;;;;5.93;100.00;97805.34;5034521;28;19924;-86
2023/10/30 15:21:57;;;;;;;;;;;;;;;5.85;100.00;97805.75;5034728;28;19921;-86
2023/10/30 15:24:22;;;;;;;;;;;;;;;5.78;100.00;97809.66;5033538;28;19968;-95
2023/10/30 15:26:47;;;;;;;;;;;;;;;5.70;100.00;97806.63;5034329;28;19967;-92
2023/10/30 15:29:13;;;;;;;;;;;;;;;5.76;100.00;97808.88;5034380;28;19925;-87
2023/10/30 15:31:38;;;;;;;;;;;;;;;5.79;100.00;97813.97;5034233;28;20422;-84
2023/10/30 15:34:03;;;;;;;;;;;;;;;5.85;100.00;97811.00;5034230;28;19928;-86
2023/10/30 15:36:28;;;;;;;;;;;;;;;5.79;100.00;97809.59;5034316;28;19917;-95
2023/10/30 15:38:54;;;;;;;;;;;;;;;5.75;100.00;97820.34;5034494;28;20024;-87
2023/10/30 15:41:19;;;;;;;;;;;;;;;5.71;100.00;97818.81;5032879;28;19921;-87
2023/10/30 15:43:44;;;;;;;;;;;;;;;5.70;100.00;97822.38;5034030;28;19932;-88
2023/10/30 15:46:09;;;;;;;;;;;;;;;5.73;100.00;97816.97;5034035;28;20272;-87
2023/10/30 15:48:35;;;;;;;;;;;;;;;5.75;100.00;97804.56;5033966;28;19921;-88
2023/10/30 15:51:00;;;;;;;;;;;;;;;5.70;100.00;97811.88;5033909;28;19924;-88
2023/10/30 15:53:25;;;;;;;;;;;;;;;5.74;100.00;97810.75;5016328;28;19956;-85
2023/10/30 15:55:50;;;;;;;;;;;;;;;5.75;100.00;97805.41;5014757;28;19921;-93
2023/10/30 15:58:19;;;;;;;;;;;;;;;5.83;100.00;97802.38;5033891;28;19925;-87
2023/10/30 16:00:45;;;;;;;;;;;;;;;5.81;100.00;97804.25;5033114;28;19925;-87
2023/10/30 16:03:11;;;;;;;;;;;;;;;5.77;100.00;97803.53;5033765;28;20387;-87
2023/10/30 16:05:37;;;;;;;;;;;;;;;5.79;100.00;97796.44;5015058;28;19921;-84
2023/10/30 16:08:02;;;;;;;;;;;;;;;5.77;100.00;97794.81;5032776;28;20370;-87
2023/10/30 16:10:27;;;;;;;;;;;;;;;5.73;100.00;97796.78;5032183;28;19918;-91
2023/10/30 16:12:52;;;;;;;;;;;;;;;5.77;100.00;97794.81;5015484;28;19928;-86
2023/10/30 16:15:18;;;;;;;;;;;;;;;5.79;100.00;97800.84;5033231;28;20376;-83
2023/10/30 16:17:43;;;;;;;;;;;;;;;5.80;100.00;97802.53;5033461;28;19975;-83
2023/10/30 16:20:09;;;;;;;;;;;;;;;5.86;100.00;97804.84;5033084;28;19917;-88
2023/10/30 16:22:34;;;;;;;;;;;;;;;5.82;100.00;97805.91;5033280;28;19925;-85
2023/10/30 16:25:02;;;;;;;;;;;;;;;5.76;100.00;97801.00;5031808;28;20343;-92
2023/10/30 16:27:27;;;;;;;;;;;;;;;5.84;100.00;97798.81;5015550;28;19925;-87
2023/10/30 16:29:53;;;;;;;;;;;;;;;5.75;100.00;97801.94;5033808;28;19921;-87
2023/10/30 16:32:18;;;;;;;;;;;;;;;5.84;100.00;97809.34;5033299;28;19928;-83
2023/10/30 16:34:43;;;;;;;;;;;;;;;5.79;100.00;97811.34;5015316;28;19968;-85
2023/10/30 16:37:09;;;;;;;;;;;;;;;5.82;100.00;97813.81;5033016;28;19917;-83
2023/10/30 16:39:34;;;;;;;;;;;;;;;5.82;100.00;97811.19;5031875;28;20287;-84
2023/10/30 16:41:59;;;;;;;;;;;;;;;6.19;100.00;97809.19;5015206;28;19921;-84
2023/10/30 16:44:25;;;;;;;;;;;;;;;6.62;100.00;97809.34;5032942;28;19921;-84
2023/10/30 16:46:50;;;;;;;;;;;;;;;6.84;100.00;97816.81;5014848;28;20059;-86
2023/10/30 16:49:15;;;;;;;;;;;;;;;7.06;100.00;97821.66;5033859;28;19943;-83
2023/10/30 16:51:41;;;;;;;;;;;;;;;7.14;100.00;97818.56;5032605;28;19913;-85
2023/10/30 16:54:06;;;;;;;;;;;;;;;7.26;100.00;97835.44;5032687;28;19921;-84
2023/10/30 16:56:33;;;;;;;;;;;;;;;7.32;100.00;97829.78;5031215;28;19943;-84
2023/10/30 16:58:58;;;;;;;;;;;;;;;7.43;100.00;97835.22;5014730;28;20372;-84
2023/10/30 17:01:24;;;;;;;;;;;;;;;7.51;100.00;97841.84;5032545;28;20010;-86
2023/10/30 17:03:49;;;;;;;;;;;;;;;7.60;100.00;97838.66;5032485;28;19924;-86
2023/10/30 17:06:15;;;;;;;;;;;;;;;7.64;100.00;97848.03;5032485;28;20070;-85
2023/10/30 17:08:40;;;;;;;;;;;;;;;7.71;100.00;97851.16;5032502;28;19924;-84
2023/10/30 17:11:05;;;;;;;;;;;;;;;7.79;100.00;97854.19;5031095;28;20022;-86
2023/10/30 17:13:31;;;;;;;;;;;;;;;7.84;100.00;97848.63;5032439;28;19920;-84
2023/10/30 17:15:56;;;;;;;;;;;;;;;7.89;100.00;97849.16;5032268;28;19917;-84
2023/10/30 17:18:26;;;;;;;;;;;;;;;7.94;100.00;97855.84;5032269;28;20850;-83
2023/10/30 17:20:51;;;;;;;;;;;;;;;7.98;100.00;97861.78;5032153;28;19948;-85
2023/10/30 17:23:17;;;;;;;;;;;;;;;8.00;100.00;97865.16;5032293;28;19959;-85
2023/10/30 17:25:42;;;;;;;;;;;;;;;8.04;100.00;97860.53;5031156;28;20272;-83
2023/10/30 17:28:07;;;;;;;;;;;;;;;8.08;100.00;97867.31;5014394;28;19917;-82
2023/10/30 17:30:32;;;;;;;;;;;;;;;8.13;100.00;97873.97;5032069;28;20280;-86
2023/10/30 17:32:58;;;;;;;;;;;;;;;8.17;100.00;97870.22;5032159;28;19971;-83
2023/10/30 17:35:23;;;;;;;;;;;;;;;8.18;100.00;97869.28;5032281;28;19971;-83
2023/10/30 17:37:48;;;;;;;;;;;;;;;8.22;100.00;97874.34;5031992;28;20386;-84
2023/10/30 17:40:14;;;;;;;;;;;;;;;8.26;100.00;97870.56;5030573;28;20384;-83
2023/10/30 17:42:39;;;;;;;;;;;;;;;8.28;100.00;97863.41;5032125;28;19917;-83
2023/10/30 17:45:04;;;;;;;;;;;;;;;8.30;100.00;97867.66;5014054;28;19925;-86
2023/10/30 17:47:30;;;;;;;;;;;;;;;8.35;100.00;97870.00;5014235;28;19964;-82
2023/10/30 17:49:59;;;;;;;;;;;;;;;8.37;100.00;97865.47;5013994;28;19917;-83
2023/10/30 17:52:25;;;;;;;;;;;;;;;8.40;100.00;97857.34;5031842;28;19964;-83
2023/10/30 17:54:50;;;;;;;;;;;;;;;8.46;100.00;97850.88;5030644;28;19917;-83
2023/10/30 17:57:15;;;;;;;;;;;;;;;8.47;100.00;97834.94;5031594;28;20372;-83
2023/10/30 17:59:42;;;;;;;;;;;;;;;8.53;100.00;97810.75;5031750;28;19948;-85
2023/10/30 18:02:07;;;;;;;;;;;;;;;8.60;100.00;97768.09;5031746;28;19955;-84
2023/10/30 18:04:34;;;;;;;;;;;;;;;8.58;100.00;97780.56;5031907;28;19969;-87
2023/10/30 18:06:59;;;;;;;;;;;;;;;8.55;100.00;97792.16;5031461;28;19917;-83
2023/10/30 18:09:24;;;;;;;;;;;;;;;8.56;100.00;97793.88;5030505;28;19918;-86
2023/10/30 18:11:50;;;;;;;;;;;;;;;8.58;100.00;97799.88;5031759;28;19917;-87
2023/10/30 18:14:15;;;;;;;;;;;;;;;8.58;100.00;97823.66;5031477;28;20450;-83
2023/10/30 18:16:41;;;;;;;;;;;;;;;8.60;100.00;97839.38;5031671;28;19917;-84
2023/10/30 18:19:07;;;;;;;;;;;;;;;8.61;100.00;97849.84;5031598;28;20088;-85
2023/10/30 18:21:32;;;;;;;;;;;;;;;8.61;100.00;97856.94;5031898;28;20027;-85
2023/10/30 18:23:57;;;;;;;;;;;;;;;8.63;100.00;97855.03;5031539;28;19917;-86
2023/10/30 18:26:24;;;;;;;;;;;;;;;8.66;100.00;97855.69;5030365;28;19928;-86
2023/10/30 18:28:50;;;;;;;;;;;;;;;8.66;100.00;97862.75;5034493;28;19924;-84
2023/10/30 18:31:15;;;;;;;;;;;;;;;8.66;100.00;97863.63;5017630;28;20326;-84
2023/10/30 18:33:40;;;;;;;;;;;;;;;8.69;100.00;97862.53;5035654;28;19960;-84
2023/10/30 18:36:06;;;;;;;;;;;;;;;8.71;100.00;97855.34;5035195;28;20276;-85
2023/10/30 18:38:31;;;;;;;;;;;;;;;8.73;100.00;97853.50;5035354;28;19917;-86
2023/10/30 18:41:01;;;;;;;;;;;;;;;8.73;100.00;97856.97;5033941;28;19987;-84
2023/10/30 18:43:26;;;;;;;;;;;;;;;8.76;100.00;97848.00;5034782;28;19921;-85
2023/10/30 18:45:52;;;;;;;;;;;;;;;8.79;100.00;97853.09;5017366;28;20295;-84
2023/10/30 18:48:17;;;;;;;;;;;;;;;8.84;100.00;97845.69;5018190;28;19979;-83
2023/10/30 18:50:42;;;;;;;;;;;;;;;8.69;100.00;97847.53;5035465;28;19917;-84
2023/10/30 18:53:08;;;;;;;;;;;;;;;7.93;100.00;97842.75;5034977;28;19917;-83
2023/10/30 18:55:33;;;;;;;;;;;;;;;7.67;100.00;97837.31;5033787;28;20007;-84
2023/10/30 18:57:59;;;;;;;;;;;;;;;7.43;100.00;97839.66;5034578;28;20351;-84
2023/10/30 19:00:25;;;;;;;;;;;;;;;7.36;100.00;97843.63;5017104;28;20368;-84
2023/10/30 19:02:50;;;;;;;;;;;;;;;7.22;100.00;97841.81;5035042;28;19970;-83
2023/10/30 19:05:15;;;;;;;;;;;;;;;7.15;100.00;97854.53;5017030;28;20353;-86
2023/10/30 19:07:40;;;;;;;;;;;;;;;7.20;100.00;97854.25;5034677;28;19917;-84
2023/10/30 19:10:06;;;;;;;;;;;;;;;7.18;100.00;97853.47;5033363;28;20423;-86
2023/10/30 19:12:32;;;;;;;;;;;;;;;7.11;100.00;97849.53;5034512;28;19939;-84
2023/10/30 19:14:58;;;;;;;;;;;;;;;6.94;100.00;97846.09;5016733;28;19921;-84
2023/10/30 19:17:23;;;;;;;;;;;;;;;6.97;100.00;97843.25;5016407;28;19918;-86
2023/10/30 19:19:48;;;;;;;;;;;;;;;6.96;100.00;97840.75;5034564;28;20365;-83
2023/10/30 19:22:14;;;;;;;;;;;;;;;6.92;100.00;97845.31;5034423;28;19921;-85
2023/10/30 19:24:39;;;;;;;;;;;;;;;6.92;100.00;97847.97;5033268;28;19960;-84
2023/10/30 19:27:05;;;;;;;;;;;;;;;6.88;100.00;97844.66;5033982;28;19967;-83
2023/10/30 19:29:30;;;;;;;;;;;;;;;6.77;100.00;97843.63;5034330;28;19921;-84
2023/10/30 19:31:55;;;;;;;;;;;;;;;6.82;100.00;97849.44;5034292;28;19917;-84
2023/10/30 19:34:21;;;;;;;;;;;;;;;6.86;100.00;97856.22;5034234;28;20539;-82
2023/10/30 19:36:48;;;;;;;;;;;;;;;6.75;100.00;97843.69;5034273;28;19940;-85
2023/10/30 19:39:47;;;;;;;;;;;;;;;;;;;;;
2023/10/30 19:42:12;;;;;;;;;;;;;;;6.67;100.00;97838.88;5034614;28;19923;-92
2023/10/30 19:44:37;;;;;;;;;;;;;;;6.66;100.00;97842.44;5033277;28;20004;-85
2023/10/30 19:47:03;;;;;;;;;;;;;;;6.62;100.00;97838.31;5033975;28;19921;-82
2023/10/30 19:49:28;;;;;;;;;;;;;;;6.58;100.00;97839.41;5033207;28;19948;-84
2023/10/30 19:51:54;;;;;;;;;;;;;;;6.61;100.00;97839.22;5034011;28;19960;-86
2023/10/30 19:54:19;;;;;;;;;;;;;;;6.55;100.00;97837.78;5032670;28;19921;-85
2023/10/30 19:56:45;;;;;;;;;;;;;;;6.55;100.00;97832.53;5033654;28;19952;-83
2023/10/30 19:59:10;;;;;;;;;;;;;;;6.49;100.00;97826.78;5033906;28;19921;-86
2023/10/30 20:01:36;;;;;;;;;;;;;;;6.50;100.00;97831.09;5033838;28;20307;-85
2023/10/30 20:04:01;;;;;;;;;;;;;;;6.44;100.00;97824.41;5033515;28;19921;-83
2023/10/30 20:06:26;;;;;;;;;;;;;;;6.41;100.00;97832.47;5033360;28;19917;-83
2023/10/30 20:08:51;;;;;;;;;;;;;;;6.49;100.00;97835.53;5033577;28;19921;-85
2023/10/30 20:11:17;;;;;;;;;;;;;;;6.41;100.00;97839.53;5032211;28;19924;-83
2023/10/30 20:13:42;;;;;;;;;;;;;;;6.41;100.00;97843.00;5033594;28;20350;-85
2023/10/30 20:16:08;;;;;;;;;;;;;;;6.32;100.00;97836.47;5033216;28;19917;-84
2023/10/30 20:18:33;;;;;;;;;;;;;;;6.41;100.00;97848.25;5033615;28;19921;-83
2023/10/30 20:20:58;;;;;;;;;;;;;;;6.39;100.00;97858.03;5033395;28;19917;-86
2023/10/30 20:23:23;;;;;;;;;;;;;;;6.52;100.00;97866.91;5033300;28;20356;-86
2023/10/30 20:25:49;;;;;;;;;;;;;;;6.60;100.00;97860.38;5032055;28;19918;-85
2023/10/30 20:28:14;;;;;;;;;;;;;;;6.56;100.00;97857.06;5033097;28;20360;-84
2023/10/30 20:30:39;;;;;;;;;;;;;;;6.57;100.00;97869.28;5033158;28;19924;-84
2023/10/30 20:33:05;;;;;;;;;;;;;;;6.54;100.00;97856.28;5033077;28;19928;-85
2023/10/30 20:35:31;;;;;;;;;;;;;;;6.38;100.00;97853.69;5032884;28;20283;-85
2023/10/30 20:37:56;;;;;;;;;;;;;;;6.45;100.00;97859.47;5032977;28;19921;-87
2023/10/30 20:40:21;;;;;;;;;;;;;;;6.39;100.00;97875.59;5031439;28;19952;-81
2023/10/30 20:42:47;;;;;;;;;;;;;;;6.28;100.00;97882.28;5032823;28;20364;-89
2023/10/30 20:45:12;;;;;;;;;;;;;;;6.32;100.00;97872.47;5032963;28;20280;-88
2023/10/30 20:47:38;;;;;;;;;;;;;;;6.40;100.00;97888.66;5014984;28;20004;-82
2023/10/30 20:50:03;;;;;;;;;;;;;;;6.18;100.00;97892.47;5032499;28;19939;-85
2023/10/30 20:52:28;;;;;;;;;;;;;;;6.32;100.00;97893.50;5032523;28;19944;-84
2023/10/30 20:54:54;;;;;;;;;;;;;;;6.26;100.00;97907.00;5031279;28;19931;-85
2023/10/30 20:57:19;;;;;;;;;;;;;;;6.27;100.00;97900.78;5032321;28;19921;-84
2023/10/30 20:59:44;;;;;;;;;;;;;;;6.36;100.00;97906.38;5032571;28;19929;-82
2023/10/30 21:02:10;;;;;;;;;;;;;;;6.30;100.00;97905.88;5032550;28;19917;-84
2023/10/30 21:04:35;;;;;;;;;;;;;;;6.27;100.00;97898.16;5032600;28;20269;-82
2023/10/30 21:07:01;;;;;;;;;;;;;;;6.23;100.00;97905.38;5014772;28;19971;-83
2023/10/30 21:09:26;;;;;;;;;;;;;;;6.20;100.00;97905.53;5031068;28;19936;-83
2023/10/30 21:11:51;;;;;;;;;;;;;;;6.29;100.00;97914.72;5032346;28;19918;-84